sensor_id;sensor_type;location;lat;lon;timestamp;temperature;humidity
21563;DHT22;10942;47.894;11.424;2023-04-25T00:25:48;8.00;99.90
21563;DHT22;10942;47.894;11.424;2023-04-25T00:28:14;7.90;99.90
21563;DHT22;10942;47.894;11.424;2023-04-25T00:30:41;7.80;99.90
21563;DHT22;10942;47.894;11.424;2023-04-25T00:33:07;7.80;99.90
21563;DHT22;10942;47.894;11.424;2023-04-25T00:35:33;7.80;99.90
21563;DHT22;10942;47.894;11.424;2023-04-25T05:58:14;7.90;99.90
21563;DHT22;10942;47.894;11.424;2023-04-25T06:00:41;8.00;99.90
21563;DHT22;10942;47.894;11.424;2023-04-25T06:03:07;8.20;99.90
21563;DHT22;10942;47.894;11.424;2023-04-25T06:08:01;9.10;99.90
21563;DHT22;10942;47.894;11.424;2023-04-25T06:12:53;9.80;99.90
21563;DHT22;10942;47.894;11.424;2023-04-25T06:15:20;10.80;99.90
21563;DHT22;10942;47.894;11.424;2023-04-25T06:20:12;11.30;99.90
21563;DHT22;10942;47.894;11.424;2023-04-25T06:22:39;12.80;99.90
21563;DHT22;10942;47.894;11.424;2023-04-25T06:25:05;12.80;99.90
21563;DHT22;10942;47.894;11.424;2023-04-25T06:27:33;13.50;99.90
21563;DHT22;10942;47.894;11.424;2023-04-25T06:46:06;14.10;99.90
21563;DHT22;10942;47.894;11.424;2023-04-25T06:48:39;16.70;99.90
21563;DHT22;10942;47.894;11.424;2023-04-25T06:51:05;16.10;99.90
21563;DHT22;10942;47.894;11.424;2023-04-25T06:56:00;14.90;99.90
21563;DHT22;10942;47.894;11.424;2023-04-25T06:58:34;14.70;99.90
21563;DHT22;10942;47.894;11.424;2023-04-25T07:01:13;14.20;99.90
21563;DHT22;10942;47.894;11.424;2023-04-25T07:03:39;13.50;99.90
21563;DHT22;10942;47.894;11.424;2023-04-25T07:06:11;12.80;99.90
21563;DHT22;10942;47.894;11.424;2023-04-25T07:08:37;12.40;99.90
21563;DHT22;10942;47.894;11.424;2023-04-25T07:11:03;12.30;99.90
21563;DHT22;10942;47.894;11.424;2023-04-25T07:13:29;11.80;99.90
21563;DHT22;10942;47.894;11.424;2023-04-25T07:15:55;12.20;99.90
21563;DHT22;10942;47.894;11.424;2023-04-25T07:18:22;13.40;99.90
21563;DHT22;10942;47.894;11.424;2023-04-25T07:20:48;14.90;99.90
21563;DHT22;10942;47.894;11.424;2023-04-25T07:23:14;15.80;99.90
21563;DHT22;10942;47.894;11.424;2023-04-25T07:25:43;16.70;99.90
21563;DHT22;10942;47.894;11.424;2023-04-25T07:28:09;17.20;99.90
21563;DHT22;10942;47.894;11.424;2023-04-25T07:30:35;18.40;99.90
21563;DHT22;10942;47.894;11.424;2023-04-25T07:33:03;20.30;99.90
21563;DHT22;10942;47.894;11.424;2023-04-25T07:35:29;19.60;99.90
21563;DHT22;10942;47.894;11.424;2023-04-25T07:37:55;20.50;99.90
21563;DHT22;10942;47.894;11.424;2023-04-25T07:40:21;20.80;99.90
21563;DHT22;10942;47.894;11.424;2023-04-25T07:42:51;20.40;99.90
21563;DHT22;10942;47.894;11.424;2023-04-25T07:45:24;19.90;99.90
21563;DHT22;10942;47.894;11.424;2023-04-25T07:47:50;20.20;99.90
21563;DHT22;10942;47.894;11.424;2023-04-25T07:50:16;20.40;99.90
21563;DHT22;10942;47.894;11.424;2023-04-25T07:52:42;20.80;99.90
21563;DHT22;10942;47.894;11.424;2023-04-25T07:55:17;20.50;99.90
21563;DHT22;10942;47.894;11.424;2023-04-25T07:58:00;20.90;99.90
21563;DHT22;10942;47.894;11.424;2023-04-25T08:00:29;20.70;99.90
21563;DHT22;10942;47.894;11.424;2023-04-25T08:03:11;20.80;99.90
21563;DHT22;10942;47.894;11.424;2023-04-25T08:10:33;17.80;99.90
21563;DHT22;10942;47.894;11.424;2023-04-25T08:20:18;14.70;99.90
21563;DHT22;10942;47.894;11.424;2023-04-25T08:22:44;14.30;99.90
21563;DHT22;10942;47.894;11.424;2023-04-25T08:25:27;13.90;99.90
21563;DHT22;10942;47.894;11.424;2023-04-25T08:27:53;13.40;99.90
21563;DHT22;10942;47.894;11.424;2023-04-25T08:30:21;13.10;99.90
21563;DHT22;10942;47.894;11.424;2023-04-25T08:32:47;12.70;99.90
21563;DHT22;10942;47.894;11.424;2023-04-25T08:35:44;12.60;99.90
21563;DHT22;10942;47.894;11.424;2023-04-25T08:38:11;12.90;99.90
21563;DHT22;10942;47.894;11.424;2023-04-25T08:40:38;13.20;99.90
21563;DHT22;10942;47.894;11.424;2023-04-25T08:43:09;13.70;99.90
21563;DHT22;10942;47.894;11.424;2023-04-25T08:45:40;14.80;99.90
21563;DHT22;10942;47.894;11.424;2023-04-25T08:48:17;15.90;99.90
21563;DHT22;10942;47.894;11.424;2023-04-25T08:53:17;18.30;99.90
21563;DHT22;10942;47.894;11.424;2023-04-25T08:55:46;19.20;99.90
21563;DHT22;10942;47.894;11.424;2023-04-25T08:58:14;18.00;99.90
21563;DHT22;10942;47.894;11.424;2023-04-25T09:03:07;16.90;99.90
21563;DHT22;10942;47.894;11.424;2023-04-25T09:05:33;18.50;99.90
21563;DHT22;10942;47.894;11.424;2023-04-25T09:08:00;20.40;99.90
21563;DHT22;10942;47.894;11.424;2023-04-25T09:10:27;20.60;99.90
21563;DHT22;10942;47.894;11.424;2023-04-25T09:13:25;19.70;99.90
21563;DHT22;10942;47.894;11.424;2023-04-25T09:21:22;16.10;99.90
21563;DHT22;10942;47.894;11.424;2023-04-25T09:23:49;15.90;99.90
21563;DHT22;10942;47.894;11.424;2023-04-25T09:26:19;15.30;99.90
21563;DHT22;10942;47.894;11.424;2023-04-25T09:28:46;15.20;99.90
21563;DHT22;10942;47.894;11.424;2023-04-25T09:31:24;15.50;99.90
21563;DHT22;10942;47.894;11.424;2023-04-25T09:33:59;14.60;99.90
21563;DHT22;10942;47.894;11.424;2023-04-25T09:36:26;14.20;99.90
21563;DHT22;10942;47.894;11.424;2023-04-25T09:39:15;13.80;99.90
21563;DHT22;10942;47.894;11.424;2023-04-25T09:41:44;13.80;99.90
21563;DHT22;10942;47.894;11.424;2023-04-25T09:44:12;13.70;99.90
21563;DHT22;10942;47.894;11.424;2023-04-25T09:46:40;13.60;99.90
21563;DHT22;10942;47.894;11.424;2023-04-25T09:49:20;13.70;99.90
21563;DHT22;10942;47.894;11.424;2023-04-25T09:51:59;13.60;99.90
21563;DHT22;10942;47.894;11.424;2023-04-25T09:54:41;13.30;99.90
21563;DHT22;10942;47.894;11.424;2023-04-25T09:57:14;13.60;99.90
21563;DHT22;10942;47.894;11.424;2023-04-25T09:59:51;13.60;99.90
21563;DHT22;10942;47.894;11.424;2023-04-25T10:02:27;13.60;99.90
21563;DHT22;10942;47.894;11.424;2023-04-25T10:04:57;13.50;99.90
21563;DHT22;10942;47.894;11.424;2023-04-25T10:07:30;13.50;99.90
21563;DHT22;10942;47.894;11.424;2023-04-25T10:10:02;13.40;99.90
21563;DHT22;10942;47.894;11.424;2023-04-25T10:12:29;13.40;99.90
21563;DHT22;10942;47.894;11.424;2023-04-25T10:14:58;13.90;99.90
21563;DHT22;10942;47.894;11.424;2023-04-25T10:17:24;14.30;99.90
21563;DHT22;10942;47.894;11.424;2023-04-25T10:19:52;14.80;99.90
21563;DHT22;10942;47.894;11.424;2023-04-25T10:22:38;14.80;99.90
21563;DHT22;10942;47.894;11.424;2023-04-25T10:25:06;14.40;99.90
21563;DHT22;10942;47.894;11.424;2023-04-25T10:27:32;13.70;99.90
21563;DHT22;10942;47.894;11.424;2023-04-25T10:30:23;12.90;99.90
21563;DHT22;10942;47.894;11.424;2023-04-25T10:32:48;13.00;99.90
21563;DHT22;10942;47.894;11.424;2023-04-25T10:35:34;12.60;99.90
21563;DHT22;10942;47.894;11.424;2023-04-25T10:38:11;12.90;99.90
21563;DHT22;10942;47.894;11.424;2023-04-25T10:40:39;13.10;99.90
21563;DHT22;10942;47.894;11.424;2023-04-25T10:43:42;13.40;99.90
21563;DHT22;10942;47.894;11.424;2023-04-25T10:46:28;13.40;99.90
21563;DHT22;10942;47.894;11.424;2023-04-25T10:48:57;13.30;99.90
21563;DHT22;10942;47.894;11.424;2023-04-25T10:51:28;13.30;99.90
21563;DHT22;10942;47.894;11.424;2023-04-25T10:53:59;12.70;99.90
21563;DHT22;10942;47.894;11.424;2023-04-25T10:59:12;11.90;99.90
21563;DHT22;10942;47.894;11.424;2023-04-25T11:07:05;10.50;99.90
21563;DHT22;10942;47.894;11.424;2023-04-25T11:16:55;9.80;99.90
21563;DHT22;10942;47.894;11.424;2023-04-25T11:26:43;9.60;99.90
21563;DHT22;10942;47.894;11.424;2023-04-25T11:29:11;9.50;99.90
21563;DHT22;10942;47.894;11.424;2023-04-25T11:31:37;9.60;99.90
21563;DHT22;10942;47.894;11.424;2023-04-25T11:34:03;9.40;99.90
21563;DHT22;10942;47.894;11.424;2023-04-25T11:48:45;8.70;99.90
21563;DHT22;10942;47.894;11.424;2023-04-25T11:51:12;8.60;99.90
21563;DHT22;10942;47.894;11.424;2023-04-25T11:53:41;9.00;99.90
21563;DHT22;10942;47.894;11.424;2023-04-25T11:56:12;8.80;99.90
21563;DHT22;10942;47.894;11.424;2023-04-25T11:59:03;9.10;99.90
21563;DHT22;10942;47.894;11.424;2023-04-25T12:01:34;9.30;99.90
21563;DHT22;10942;47.894;11.424;2023-04-25T12:04:25;9.60;99.90
21563;DHT22;10942;47.894;11.424;2023-04-25T12:06:53;10.00;99.90
21563;DHT22;10942;47.894;11.424;2023-04-25T12:09:32;10.30;99.90
21563;DHT22;10942;47.894;11.424;2023-04-25T12:11:59;10.60;99.90
21563;DHT22;10942;47.894;11.424;2023-04-25T12:14:32;11.10;99.90
21563;DHT22;10942;47.894;11.424;2023-04-25T12:17:00;11.30;99.90
21563;DHT22;10942;47.894;11.424;2023-04-25T12:19:35;11.10;99.90
21563;DHT22;10942;47.894;11.424;2023-04-25T12:22:02;11.20;99.90
21563;DHT22;10942;47.894;11.424;2023-04-25T12:24:33;11.30;99.90
21563;DHT22;10942;47.894;11.424;2023-04-25T12:29:28;11.30;99.90
21563;DHT22;10942;47.894;11.424;2023-04-25T12:31:55;11.20;99.90
21563;DHT22;10942;47.894;11.424;2023-04-25T12:34:22;10.90;99.90
21563;DHT22;10942;47.894;11.424;2023-04-25T12:36:49;10.90;99.90
21563;DHT22;10942;47.894;11.424;2023-04-25T12:39:16;10.70;99.90
21563;DHT22;10942;47.894;11.424;2023-04-25T12:41:42;10.60;99.90
21563;DHT22;10942;47.894;11.424;2023-04-25T12:44:08;10.60;99.90
21563;DHT22;10942;47.894;11.424;2023-04-25T12:46:34;10.40;99.90
21563;DHT22;10942;47.894;11.424;2023-04-25T12:49:00;10.40;99.90
21563;DHT22;10942;47.894;11.424;2023-04-25T12:51:26;10.50;99.90
21563;DHT22;10942;47.894;11.424;2023-04-25T12:53:53;10.20;99.90
21563;DHT22;10942;47.894;11.424;2023-04-25T12:56:19;10.30;99.90
21563;DHT22;10942;47.894;11.424;2023-04-25T12:58:45;10.40;99.90
21563;DHT22;10942;47.894;11.424;2023-04-25T13:01:11;10.40;99.90
21563;DHT22;10942;47.894;11.424;2023-04-25T13:03:37;10.70;99.90
21563;DHT22;10942;47.894;11.424;2023-04-25T13:06:03;10.60;99.90
21563;DHT22;10942;47.894;11.424;2023-04-25T13:08:30;10.50;99.90
21563;DHT22;10942;47.894;11.424;2023-04-25T13:10:55;10.70;99.90
21563;DHT22;10942;47.894;11.424;2023-04-25T13:13:21;10.70;99.90
21563;DHT22;10942;47.894;11.424;2023-04-25T13:15:47;10.70;99.90
21563;DHT22;10942;47.894;11.424;2023-04-25T13:18:13;10.50;99.90
21563;DHT22;10942;47.894;11.424;2023-04-25T13:20:39;10.70;99.90
21563;DHT22;10942;47.894;11.424;2023-04-25T13:23:05;10.80;99.90
21563;DHT22;10942;47.894;11.424;2023-04-25T13:25:30;10.80;99.90
21563;DHT22;10942;47.894;11.424;2023-04-25T13:27:56;10.70;99.90
21563;DHT22;10942;47.894;11.424;2023-04-25T13:30:22;10.40;99.90
21563;DHT22;10942;47.894;11.424;2023-04-25T13:32:50;10.00;99.90
21563;DHT22;10942;47.894;11.424;2023-04-25T13:35:16;9.90;99.90
21563;DHT22;10942;47.894;11.424;2023-04-25T13:37:42;9.50;99.90
21563;DHT22;10942;47.894;11.424;2023-04-25T13:40:10;9.10;99.90
21563;DHT22;10942;47.894;11.424;2023-04-25T13:42:39;8.90;99.90
21563;DHT22;10942;47.894;11.424;2023-04-25T13:45:06;10.00;99.90
21563;DHT22;10942;47.894;11.424;2023-04-25T13:47:33;8.60;99.90
21563;DHT22;10942;47.894;11.424;2023-04-25T13:49:58;8.60;99.90
21563;DHT22;10942;47.894;11.424;2023-04-25T13:52:24;8.60;99.90
21563;DHT22;10942;47.894;11.424;2023-04-25T13:54:51;8.60;99.90
21563;DHT22;10942;47.894;11.424;2023-04-25T13:57:17;8.50;99.90
21563;DHT22;10942;47.894;11.424;2023-04-25T13:59:43;8.60;99.90
21563;DHT22;10942;47.894;11.424;2023-04-25T14:02:09;8.60;99.90
21563;DHT22;10942;47.894;11.424;2023-04-25T14:04:35;8.70;99.90
21563;DHT22;10942;47.894;11.424;2023-04-25T14:07:01;8.50;99.90
21563;DHT22;10942;47.894;11.424;2023-04-25T14:09:28;8.60;99.90
21563;DHT22;10942;47.894;11.424;2023-04-25T14:11:54;8.50;99.90
21563;DHT22;10942;47.894;11.424;2023-04-25T14:14:21;8.40;99.90
21563;DHT22;10942;47.894;11.424;2023-04-25T14:16:48;8.40;99.90
21563;DHT22;10942;47.894;11.424;2023-04-25T14:19:17;8.50;99.90
21563;DHT22;10942;47.894;11.424;2023-04-25T14:21:43;8.50;99.90
21563;DHT22;10942;47.894;11.424;2023-04-25T14:24:09;8.50;99.90
21563;DHT22;10942;47.894;11.424;2023-04-25T14:26:36;8.50;99.90
21563;DHT22;10942;47.894;11.424;2023-04-25T14:29:04;8.60;99.90
21563;DHT22;10942;47.894;11.424;2023-04-25T14:31:31;8.50;99.90
21563;DHT22;10942;47.894;11.424;2023-04-25T14:33:57;8.60;99.90
21563;DHT22;10942;47.894;11.424;2023-04-25T14:36:22;8.80;99.90
21563;DHT22;10942;47.894;11.424;2023-04-25T14:38:48;8.80;99.90
21563;DHT22;10942;47.894;11.424;2023-04-25T14:41:14;8.90;99.90
21563;DHT22;10942;47.894;11.424;2023-04-25T14:43:39;9.00;99.90
21563;DHT22;10942;47.894;11.424;2023-04-25T14:46:07;9.00;99.90
21563;DHT22;10942;47.894;11.424;2023-04-25T14:48:33;8.80;99.90
21563;DHT22;10942;47.894;11.424;2023-04-25T14:50:59;9.00;99.90
21563;DHT22;10942;47.894;11.424;2023-04-25T14:53:26;9.20;99.90
21563;DHT22;10942;47.894;11.424;2023-04-25T14:55:52;9.20;99.90
21563;DHT22;10942;47.894;11.424;2023-04-25T14:58:18;9.20;99.90
21563;DHT22;10942;47.894;11.424;2023-04-25T15:00:43;9.20;99.90
21563;DHT22;10942;47.894;11.424;2023-04-25T15:03:10;9.50;99.90
21563;DHT22;10942;47.894;11.424;2023-04-25T15:05:38;9.50;99.90
21563;DHT22;10942;47.894;11.424;2023-04-25T15:08:04;9.40;99.90
21563;DHT22;10942;47.894;11.424;2023-04-25T15:10:30;9.20;99.90
21563;DHT22;10942;47.894;11.424;2023-04-25T15:12:56;9.30;99.90
21563;DHT22;10942;47.894;11.424;2023-04-25T15:15:22;9.30;99.90
21563;DHT22;10942;47.894;11.424;2023-04-25T15:17:49;9.30;99.90
21563;DHT22;10942;47.894;11.424;2023-04-25T15:20:14;9.30;99.90
21563;DHT22;10942;47.894;11.424;2023-04-25T15:22:42;9.20;99.90
21563;DHT22;10942;47.894;11.424;2023-04-25T15:25:08;9.20;99.90
21563;DHT22;10942;47.894;11.424;2023-04-25T15:27:35;9.40;99.90
21563;DHT22;10942;47.894;11.424;2023-04-25T15:30:08;9.20;99.90
21563;DHT22;10942;47.894;11.424;2023-04-25T15:32:36;9.10;99.90
21563;DHT22;10942;47.894;11.424;2023-04-25T15:35:06;9.20;99.90
21563;DHT22;10942;47.894;11.424;2023-04-25T15:37:35;9.20;99.90
21563;DHT22;10942;47.894;11.424;2023-04-25T15:40:04;8.90;99.90
21563;DHT22;10942;47.894;11.424;2023-04-25T15:42:35;8.80;99.90
21563;DHT22;10942;47.894;11.424;2023-04-25T15:45:03;8.70;99.90
21563;DHT22;10942;47.894;11.424;2023-04-25T15:47:28;8.50;99.90
21563;DHT22;10942;47.894;11.424;2023-04-25T15:49:54;8.60;99.90
21563;DHT22;10942;47.894;11.424;2023-04-25T15:52:20;8.80;99.90
21563;DHT22;10942;47.894;11.424;2023-04-25T15:54:46;8.80;99.90
21563;DHT22;10942;47.894;11.424;2023-04-25T15:57:12;8.80;99.90
21563;DHT22;10942;47.894;11.424;2023-04-25T15:59:38;8.70;99.90
21563;DHT22;10942;47.894;11.424;2023-04-25T16:02:03;8.70;99.90
21563;DHT22;10942;47.894;11.424;2023-04-25T16:04:29;8.70;99.90
21563;DHT22;10942;47.894;11.424;2023-04-25T16:07:00;8.70;99.90
21563;DHT22;10942;47.894;11.424;2023-04-25T16:09:26;8.40;99.90
21563;DHT22;10942;47.894;11.424;2023-04-25T16:11:52;8.50;99.90
21563;DHT22;10942;47.894;11.424;2023-04-25T16:14:17;8.30;99.90
21563;DHT22;10942;47.894;11.424;2023-04-25T16:16:43;8.30;99.90
21563;DHT22;10942;47.894;11.424;2023-04-25T16:19:09;8.20;99.90
21563;DHT22;10942;47.894;11.424;2023-04-25T16:21:35;8.40;99.90
21563;DHT22;10942;47.894;11.424;2023-04-25T16:24:01;8.50;99.90
21563;DHT22;10942;47.894;11.424;2023-04-25T16:26:27;8.50;99.90
21563;DHT22;10942;47.894;11.424;2023-04-25T16:28:52;8.50;99.90
21563;DHT22;10942;47.894;11.424;2023-04-25T16:31:18;8.60;99.90
21563;DHT22;10942;47.894;11.424;2023-04-25T16:33:44;8.50;99.90
21563;DHT22;10942;47.894;11.424;2023-04-25T16:36:09;8.30;99.90
21563;DHT22;10942;47.894;11.424;2023-04-25T16:38:37;8.50;99.90
21563;DHT22;10942;47.894;11.424;2023-04-25T16:41:04;8.50;99.90
21563;DHT22;10942;47.894;11.424;2023-04-25T16:43:30;8.30;99.90
21563;DHT22;10942;47.894;11.424;2023-04-25T16:45:56;8.30;99.90
21563;DHT22;10942;47.894;11.424;2023-04-25T16:49:04;8.30;99.90
21563;DHT22;10942;47.894;11.424;2023-04-25T16:51:39;8.20;99.90
21563;DHT22;10942;47.894;11.424;2023-04-25T16:54:05;8.20;99.90
21563;DHT22;10942;47.894;11.424;2023-04-25T16:56:30;8.20;99.90
21563;DHT22;10942;47.894;11.424;2023-04-25T16:58:56;8.20;99.90
21563;DHT22;10942;47.894;11.424;2023-04-25T17:01:22;8.10;99.90
21563;DHT22;10942;47.894;11.424;2023-04-25T17:03:47;8.10;99.90
21563;DHT22;10942;47.894;11.424;2023-04-25T17:06:13;8.00;99.90
21563;DHT22;10942;47.894;11.424;2023-04-25T17:08:39;7.90;99.90
21563;DHT22;10942;47.894;11.424;2023-04-25T17:11:06;7.90;99.90
21563;DHT22;10942;47.894;11.424;2023-04-25T17:13:32;7.90;99.90
21563;DHT22;10942;47.894;11.424;2023-04-25T17:15:58;7.90;99.90
21563;DHT22;10942;47.894;11.424;2023-04-25T17:18:24;8.00;99.90
21563;DHT22;10942;47.894;11.424;2023-04-25T17:20:50;8.00;99.90
21563;DHT22;10942;47.894;11.424;2023-04-25T17:23:16;7.90;99.90
21563;DHT22;10942;47.894;11.424;2023-04-25T17:25:43;7.80;99.90
21563;DHT22;10942;47.894;11.424;2023-04-25T17:28:09;7.80;99.90
21563;DHT22;10942;47.894;11.424;2023-04-25T17:30:34;7.80;99.90
21563;DHT22;10942;47.894;11.424;2023-04-25T17:33:00;7.80;99.90
21563;DHT22;10942;47.894;11.424;2023-04-25T17:35:27;7.90;99.90
21563;DHT22;10942;47.894;11.424;2023-04-25T17:37:53;7.90;99.90
21563;DHT22;10942;47.894;11.424;2023-04-25T17:40:19;8.00;99.90
21563;DHT22;10942;47.894;11.424;2023-04-25T17:42:45;7.90;99.90
21563;DHT22;10942;47.894;11.424;2023-04-25T17:45:11;8.00;99.90
21563;DHT22;10942;47.894;11.424;2023-04-25T17:47:38;8.00;99.90
21563;DHT22;10942;47.894;11.424;2023-04-25T17:50:04;8.10;99.90
21563;DHT22;10942;47.894;11.424;2023-04-25T17:52:30;8.20;99.90
21563;DHT22;10942;47.894;11.424;2023-04-25T17:54:56;8.20;99.90
21563;DHT22;10942;47.894;11.424;2023-04-25T17:57:21;8.30;99.90
21563;DHT22;10942;47.894;11.424;2023-04-25T17:59:49;8.30;99.90
21563;DHT22;10942;47.894;11.424;2023-04-25T18:02:15;8.40;99.90
21563;DHT22;10942;47.894;11.424;2023-04-25T18:04:41;8.40;99.90
21563;DHT22;10942;47.894;11.424;2023-04-25T18:07:07;8.40;99.90
21563;DHT22;10942;47.894;11.424;2023-04-25T18:09:33;8.40;99.90
21563;DHT22;10942;47.894;11.424;2023-04-25T18:12:00;8.30;99.90
21563;DHT22;10942;47.894;11.424;2023-04-25T18:14:26;8.40;99.90
21563;DHT22;10942;47.894;11.424;2023-04-25T18:16:52;8.40;99.90
21563;DHT22;10942;47.894;11.424;2023-04-25T18:19:18;8.40;99.90
21563;DHT22;10942;47.894;11.424;2023-04-25T18:21:51;8.40;99.90
21563;DHT22;10942;47.894;11.424;2023-04-25T18:24:22;8.40;99.90
21563;DHT22;10942;47.894;11.424;2023-04-25T18:26:49;8.40;99.90
21563;DHT22;10942;47.894;11.424;2023-04-25T18:29:16;8.40;99.90
21563;DHT22;10942;47.894;11.424;2023-04-25T18:31:43;8.40;99.90
21563;DHT22;10942;47.894;11.424;2023-04-25T18:34:09;8.30;99.90
21563;DHT22;10942;47.894;11.424;2023-04-25T18:36:35;8.30;99.90
21563;DHT22;10942;47.894;11.424;2023-04-25T18:39:04;8.20;99.90
21563;DHT22;10942;47.894;11.424;2023-04-25T18:41:35;8.30;99.90
21563;DHT22;10942;47.894;11.424;2023-04-25T18:44:01;8.30;99.90
21563;DHT22;10942;47.894;11.424;2023-04-25T18:46:30;8.20;99.90
21563;DHT22;10942;47.894;11.424;2023-04-25T18:48:56;8.20;99.90
21563;DHT22;10942;47.894;11.424;2023-04-25T18:51:24;8.10;99.90
21563;DHT22;10942;47.894;11.424;2023-04-25T18:53:59;8.00;99.90
21563;DHT22;10942;47.894;11.424;2023-04-25T18:56:25;8.10;99.90
21563;DHT22;10942;47.894;11.424;2023-04-25T18:58:52;7.90;99.90
21563;DHT22;10942;47.894;11.424;2023-04-25T19:01:19;7.90;99.90
21563;DHT22;10942;47.894;11.424;2023-04-25T19:03:46;7.90;99.90
21563;DHT22;10942;47.894;11.424;2023-04-25T19:06:19;7.80;99.90
21563;DHT22;10942;47.894;11.424;2023-04-25T19:08:48;7.80;99.90
21563;DHT22;10942;47.894;11.424;2023-04-25T19:11:15;7.80;99.90
21563;DHT22;10942;47.894;11.424;2023-04-25T19:13:41;7.80;99.90
21563;DHT22;10942;47.894;11.424;2023-04-25T19:16:06;7.80;99.90
21563;DHT22;10942;47.894;11.424;2023-04-25T19:18:32;7.80;99.90
21563;DHT22;10942;47.894;11.424;2023-04-25T19:20:58;7.70;99.90
21563;DHT22;10942;47.894;11.424;2023-04-25T19:23:24;7.80;99.90
21563;DHT22;10942;47.894;11.424;2023-04-25T19:25:51;7.70;99.90
21563;DHT22;10942;47.894;11.424;2023-04-25T19:28:17;7.70;99.90
21563;DHT22;10942;47.894;11.424;2023-04-25T19:30:43;7.70;99.90
21563;DHT22;10942;47.894;11.424;2023-04-25T19:33:10;7.70;99.90
21563;DHT22;10942;47.894;11.424;2023-04-25T19:35:36;7.50;99.90
21563;DHT22;10942;47.894;11.424;2023-04-25T19:38:02;7.60;99.90
21563;DHT22;10942;47.894;11.424;2023-04-25T19:40:27;7.60;99.90
21563;DHT22;10942;47.894;11.424;2023-04-25T19:42:53;7.60;99.90
21563;DHT22;10942;47.894;11.424;2023-04-25T19:45:19;7.50;99.90
21563;DHT22;10942;47.894;11.424;2023-04-25T19:47:45;7.60;99.90
21563;DHT22;10942;47.894;11.424;2023-04-25T19:50:12;7.70;99.90
21563;DHT22;10942;47.894;11.424;2023-04-25T19:52:38;7.70;99.90
21563;DHT22;10942;47.894;11.424;2023-04-25T19:55:04;7.60;99.90
21563;DHT22;10942;47.894;11.424;2023-04-25T19:57:34;7.50;99.90
21563;DHT22;10942;47.894;11.424;2023-04-25T20:00:04;7.50;99.90
21563;DHT22;10942;47.894;11.424;2023-04-25T20:02:37;7.50;99.90
21563;DHT22;10942;47.894;11.424;2023-04-25T20:05:07;7.50;99.90
21563;DHT22;10942;47.894;11.424;2023-04-25T20:07:33;7.60;99.90
21563;DHT22;10942;47.894;11.424;2023-04-25T20:09:59;7.50;99.90
21563;DHT22;10942;47.894;11.424;2023-04-25T20:12:29;7.50;99.90
21563;DHT22;10942;47.894;11.424;2023-04-25T20:14:54;7.50;99.90
21563;DHT22;10942;47.894;11.424;2023-04-25T20:17:21;7.50;99.90
21563;DHT22;10942;47.894;11.424;2023-04-25T20:19:46;7.50;99.90
21563;DHT22;10942;47.894;11.424;2023-04-25T20:22:12;7.40;99.90
21563;DHT22;10942;47.894;11.424;2023-04-25T20:24:38;7.50;99.90
21563;DHT22;10942;47.894;11.424;2023-04-25T20:27:04;7.40;99.90
21563;DHT22;10942;47.894;11.424;2023-04-25T20:29:31;7.30;99.90
21563;DHT22;10942;47.894;11.424;2023-04-25T20:31:58;7.30;99.90
21563;DHT22;10942;47.894;11.424;2023-04-25T20:34:24;7.20;99.90
21563;DHT22;10942;47.894;11.424;2023-04-25T20:36:50;7.20;99.90
21563;DHT22;10942;47.894;11.424;2023-04-25T20:39:17;7.00;99.90
21563;DHT22;10942;47.894;11.424;2023-04-25T20:41:43;7.00;99.90
21563;DHT22;10942;47.894;11.424;2023-04-25T20:44:10;7.00;99.90
21563;DHT22;10942;47.894;11.424;2023-04-25T20:46:37;7.00;99.90
21563;DHT22;10942;47.894;11.424;2023-04-25T20:49:04;7.00;99.90
21563;DHT22;10942;47.894;11.424;2023-04-25T20:51:33;7.00;99.90
21563;DHT22;10942;47.894;11.424;2023-04-25T20:54:00;7.00;99.90
21563;DHT22;10942;47.894;11.424;2023-04-25T20:56:28;7.00;99.90
21563;DHT22;10942;47.894;11.424;2023-04-25T20:58:54;7.10;99.90
21563;DHT22;10942;47.894;11.424;2023-04-25T21:01:21;7.10;99.90
21563;DHT22;10942;47.894;11.424;2023-04-25T21:03:48;7.10;99.90
21563;DHT22;10942;47.894;11.424;2023-04-25T21:06:14;7.10;99.90
21563;DHT22;10942;47.894;11.424;2023-04-25T21:08:41;7.10;99.90
21563;DHT22;10942;47.894;11.424;2023-04-25T21:11:07;7.20;99.90
21563;DHT22;10942;47.894;11.424;2023-04-25T21:13:32;7.10;99.90
21563;DHT22;10942;47.894;11.424;2023-04-25T21:15:58;7.00;99.90
21563;DHT22;10942;47.894;11.424;2023-04-25T21:18:24;7.00;99.90
21563;DHT22;10942;47.894;11.424;2023-04-25T21:20:50;7.10;99.90
21563;DHT22;10942;47.894;11.424;2023-04-25T21:23:16;7.00;99.90
21563;DHT22;10942;47.894;11.424;2023-04-25T21:25:42;6.90;99.90
21563;DHT22;10942;47.894;11.424;2023-04-25T21:28:08;7.00;99.90
21563;DHT22;10942;47.894;11.424;2023-04-25T21:30:34;7.00;99.90
21563;DHT22;10942;47.894;11.424;2023-04-25T21:32:59;7.10;99.90
21563;DHT22;10942;47.894;11.424;2023-04-25T21:35:25;6.90;99.90
21563;DHT22;10942;47.894;11.424;2023-04-25T21:37:51;6.90;99.90
21563;DHT22;10942;47.894;11.424;2023-04-25T21:40:17;6.90;99.90
21563;DHT22;10942;47.894;11.424;2023-04-25T21:42:45;6.90;99.90
21563;DHT22;10942;47.894;11.424;2023-04-25T21:45:14;6.90;99.90
21563;DHT22;10942;47.894;11.424;2023-04-25T21:47:40;6.90;99.90
21563;DHT22;10942;47.894;11.424;2023-04-25T21:50:06;6.80;99.90
21563;DHT22;10942;47.894;11.424;2023-04-25T21:52:32;6.80;99.90
21563;DHT22;10942;47.894;11.424;2023-04-25T21:54:58;6.80;99.90
21563;DHT22;10942;47.894;11.424;2023-04-25T21:57:23;6.90;99.90
21563;DHT22;10942;47.894;11.424;2023-04-25T21:59:49;6.90;99.90
21563;DHT22;10942;47.894;11.424;2023-04-25T22:02:16;6.90;99.90
21563;DHT22;10942;47.894;11.424;2023-04-25T22:04:42;7.00;99.90
21563;DHT22;10942;47.894;11.424;2023-04-25T22:07:09;7.00;99.90
21563;DHT22;10942;47.894;11.424;2023-04-25T22:09:35;7.00;99.90
21563;DHT22;10942;47.894;11.424;2023-04-25T22:12:01;7.00;99.90
21563;DHT22;10942;47.894;11.424;2023-04-25T22:14:28;7.00;99.90
21563;DHT22;10942;47.894;11.424;2023-04-25T22:16:55;7.00;99.90
21563;DHT22;10942;47.894;11.424;2023-04-25T22:19:20;7.00;99.90
21563;DHT22;10942;47.894;11.424;2023-04-25T22:21:46;6.90;99.90
21563;DHT22;10942;47.894;11.424;2023-04-25T22:24:13;6.90;99.90
21563;DHT22;10942;47.894;11.424;2023-04-25T22:26:39;6.90;99.90
21563;DHT22;10942;47.894;11.424;2023-04-25T22:29:05;6.90;99.90
21563;DHT22;10942;47.894;11.424;2023-04-25T22:31:32;6.80;99.90
21563;DHT22;10942;47.894;11.424;2023-04-25T22:33:58;6.80;99.90
21563;DHT22;10942;47.894;11.424;2023-04-25T22:36:23;6.90;99.90
21563;DHT22;10942;47.894;11.424;2023-04-25T22:38:49;6.80;99.90
21563;DHT22;10942;47.894;11.424;2023-04-25T22:41:16;6.80;99.90